sensor_id;sensor_type;location;lat;lon;timestamp;P1;durP1;ratioP1;P2;durP2;ratioP2
59016;SDS011;44800;55.600;38.134;2023-05-10T00:02:18;66.43;;;25.92;;
59016;SDS011;44800;55.600;38.134;2023-05-10T00:04:46;56.22;;;25.75;;
59016;SDS011;44800;55.600;38.134;2023-05-10T00:07:14;109.82;;;34.45;;
59016;SDS011;44800;55.600;38.134;2023-05-10T00:09:43;105.97;;;31.67;;
59016;SDS011;44800;55.600;38.134;2023-05-10T00:12:12;75.70;;;28.55;;
59016;SDS011;44800;55.600;38.134;2023-05-10T00:14:42;96.13;;;29.65;;
59016;SDS011;44800;55.600;38.134;2023-05-10T00:17:10;87.55;;;29.45;;
59016;SDS011;44800;55.600;38.134;2023-05-10T00:19:38;88.35;;;30.42;;
59016;SDS011;44800;55.600;38.134;2023-05-10T00:22:07;75.15;;;27.05;;
59016;SDS011;44800;55.600;38.134;2023-05-10T00:24:35;66.97;;;27.05;;
59016;SDS011;44800;55.600;38.134;2023-05-10T00:27:04;69.45;;;27.17;;
59016;SDS011;44800;55.600;38.134;2023-05-10T00:29:33;70.50;;;28.45;;
59016;SDS011;44800;55.600;38.134;2023-05-10T00:32:03;56.47;;;25.75;;
59016;SDS011;44800;55.600;38.134;2023-05-10T00:34:32;54.53;;;24.70;;
59016;SDS011;44800;55.600;38.134;2023-05-10T00:37:00;51.45;;;25.75;;
59016;SDS011;44800;55.600;38.134;2023-05-10T00:39:29;57.55;;;24.08;;
59016;SDS011;44800;55.600;38.134;2023-05-10T00:41:57;54.92;;;23.80;;
59016;SDS011;44800;55.600;38.134;2023-05-10T00:44:26;64.45;;;22.90;;
59016;SDS011;44800;55.600;38.134;2023-05-10T00:46:55;52.13;;;24.08;;
59016;SDS011;44800;55.600;38.134;2023-05-10T00:49:25;61.50;;;25.88;;
59016;SDS011;44800;55.600;38.134;2023-05-10T00:51:53;54.80;;;24.90;;
59016;SDS011;44800;55.600;38.134;2023-05-10T00:54:22;40.17;;;21.50;;
59016;SDS011;44800;55.600;38.134;2023-05-10T00:56:50;45.45;;;22.35;;
59016;SDS011;44800;55.600;38.134;2023-05-10T00:59:19;39.88;;;22.35;;
59016;SDS011;44800;55.600;38.134;2023-05-10T01:01:48;41.95;;;21.77;;
59016;SDS011;44800;55.600;38.134;2023-05-10T01:04:18;48.40;;;22.67;;
59016;SDS011;44800;55.600;38.134;2023-05-10T01:06:53;42.10;;;21.13;;
59016;SDS011;44800;55.600;38.134;2023-05-10T01:09:22;47.83;;;23.10;;
59016;SDS011;44800;55.600;38.134;2023-05-10T01:11:52;42.53;;;22.63;;
59016;SDS011;44800;55.600;38.134;2023-05-10T01:14:21;38.33;;;20.70;;
59016;SDS011;44800;55.600;38.134;2023-05-10T01:16:50;53.33;;;22.52;;
59016;SDS011;44800;55.600;38.134;2023-05-10T01:19:19;43.38;;;23.95;;
59016;SDS011;44800;55.600;38.134;2023-05-10T01:21:53;46.45;;;21.98;;
59016;SDS011;44800;55.600;38.134;2023-05-10T01:24:37;44.22;;;22.67;;
59016;SDS011;44800;55.600;38.134;2023-05-10T01:27:17;42.05;;;22.08;;
59016;SDS011;44800;55.600;38.134;2023-05-10T01:30:07;46.53;;;22.65;;
59016;SDS011;44800;55.600;38.134;2023-05-10T01:32:45;44.42;;;22.05;;
59016;SDS011;44800;55.600;38.134;2023-05-10T01:35:19;44.53;;;21.73;;
59016;SDS011;44800;55.600;38.134;2023-05-10T01:37:52;44.05;;;21.48;;
59016;SDS011;44800;55.600;38.134;2023-05-10T01:40:29;46.40;;;22.63;;
59016;SDS011;44800;55.600;38.134;2023-05-10T01:43:00;43.63;;;21.88;;
59016;SDS011;44800;55.600;38.134;2023-05-10T01:45:30;47.38;;;22.08;;
59016;SDS011;44800;55.600;38.134;2023-05-10T01:48:03;45.33;;;21.27;;
59016;SDS011;44800;55.600;38.134;2023-05-10T01:50:34;42.80;;;22.40;;
59016;SDS011;44800;55.600;38.134;2023-05-10T01:53:05;44.03;;;23.02;;
59016;SDS011;44800;55.600;38.134;2023-05-10T01:55:35;50.88;;;23.58;;
59016;SDS011;44800;55.600;38.134;2023-05-10T01:58:10;44.60;;;23.13;;
59016;SDS011;44800;55.600;38.134;2023-05-10T02:00:42;44.67;;;23.10;;
59016;SDS011;44800;55.600;38.134;2023-05-10T02:03:14;40.60;;;21.77;;
59016;SDS011;44800;55.600;38.134;2023-05-10T02:05:43;42.90;;;22.92;;
59016;SDS011;44800;55.600;38.134;2023-05-10T02:08:12;51.72;;;24.25;;
59016;SDS011;44800;55.600;38.134;2023-05-10T02:10:42;41.55;;;22.33;;
59016;SDS011;44800;55.600;38.134;2023-05-10T02:13:11;51.60;;;26.15;;
59016;SDS011;44800;55.600;38.134;2023-05-10T02:15:40;55.88;;;26.23;;
59016;SDS011;44800;55.600;38.134;2023-05-10T02:18:09;61.95;;;26.90;;
59016;SDS011;44800;55.600;38.134;2023-05-10T02:20:40;46.47;;;25.00;;
59016;SDS011;44800;55.600;38.134;2023-05-10T02:23:09;47.95;;;26.73;;
59016;SDS011;44800;55.600;38.134;2023-05-10T02:25:37;56.67;;;25.77;;
59016;SDS011;44800;55.600;38.134;2023-05-10T02:28:06;45.13;;;27.15;;
59016;SDS011;44800;55.600;38.134;2023-05-10T02:30:35;52.40;;;28.98;;
59016;SDS011;44800;55.600;38.134;2023-05-10T02:33:04;58.00;;;29.27;;
59016;SDS011;44800;55.600;38.134;2023-05-10T02:35:34;57.05;;;26.55;;
59016;SDS011;44800;55.600;38.134;2023-05-10T02:38:04;51.50;;;25.90;;
59016;SDS011;44800;55.600;38.134;2023-05-10T02:40:33;51.40;;;26.30;;
59016;SDS011;44800;55.600;38.134;2023-05-10T02:43:01;51.70;;;25.70;;
59016;SDS011;44800;55.600;38.134;2023-05-10T02:45:30;54.38;;;26.17;;
59016;SDS011;44800;55.600;38.134;2023-05-10T02:47:59;50.92;;;24.50;;
59016;SDS011;44800;55.600;38.134;2023-05-10T02:50:28;53.20;;;25.42;;
59016;SDS011;44800;55.600;38.134;2023-05-10T02:52:59;47.42;;;22.77;;
59016;SDS011;44800;55.600;38.134;2023-05-10T02:55:32;42.03;;;21.10;;
59016;SDS011;44800;55.600;38.134;2023-05-10T02:58:03;48.35;;;23.15;;
59016;SDS011;44800;55.600;38.134;2023-05-10T03:00:32;48.08;;;22.80;;
59016;SDS011;44800;55.600;38.134;2023-05-10T03:03:02;46.50;;;23.15;;
59016;SDS011;44800;55.600;38.134;2023-05-10T03:05:31;45.05;;;22.70;;
59016;SDS011;44800;55.600;38.134;2023-05-10T03:08:00;54.03;;;25.10;;
59016;SDS011;44800;55.600;38.134;2023-05-10T03:10:32;48.45;;;23.75;;
59016;SDS011;44800;55.600;38.134;2023-05-10T03:13:10;59.88;;;25.05;;
59016;SDS011;44800;55.600;38.134;2023-05-10T03:15:45;58.47;;;23.15;;
59016;SDS011;44800;55.600;38.134;2023-05-10T03:18:18;55.05;;;22.45;;
59016;SDS011;44800;55.600;38.134;2023-05-10T03:20:49;78.47;;;22.95;;
59016;SDS011;44800;55.600;38.134;2023-05-10T03:23:21;41.88;;;18.42;;
59016;SDS011;44800;55.600;38.134;2023-05-10T03:25:53;36.50;;;18.50;;
59016;SDS011;44800;55.600;38.134;2023-05-10T03:28:21;37.47;;;16.52;;
59016;SDS011;44800;55.600;38.134;2023-05-10T03:30:53;36.17;;;16.77;;
59016;SDS011;44800;55.600;38.134;2023-05-10T03:33:21;38.58;;;17.48;;
59016;SDS011;44800;55.600;38.134;2023-05-10T03:35:50;41.22;;;19.38;;
59016;SDS011;44800;55.600;38.134;2023-05-10T03:38:19;36.20;;;18.73;;
59016;SDS011;44800;55.600;38.134;2023-05-10T03:40:47;38.70;;;17.88;;
59016;SDS011;44800;55.600;38.134;2023-05-10T03:43:17;43.63;;;18.10;;
59016;SDS011;44800;55.600;38.134;2023-05-10T03:45:45;37.03;;;16.55;;
59016;SDS011;44800;55.600;38.134;2023-05-10T03:48:13;30.85;;;15.45;;
59016;SDS011;44800;55.600;38.134;2023-05-10T03:50:42;43.92;;;19.35;;
59016;SDS011;44800;55.600;38.134;2023-05-10T03:53:10;43.10;;;19.48;;
59016;SDS011;44800;55.600;38.134;2023-05-10T03:55:39;39.35;;;18.80;;
59016;SDS011;44800;55.600;38.134;2023-05-10T03:58:10;33.13;;;15.65;;
59016;SDS011;44800;55.600;38.134;2023-05-10T04:00:40;45.03;;;15.25;;
59016;SDS011;44800;55.600;38.134;2023-05-10T04:03:10;29.60;;;11.77;;
59016;SDS011;44800;55.600;38.134;2023-05-10T04:05:39;39.85;;;15.90;;
59016;SDS011;44800;55.600;38.134;2023-05-10T04:08:08;44.22;;;18.92;;
59016;SDS011;44800;55.600;38.134;2023-05-10T04:10:37;42.22;;;18.58;;
59016;SDS011;44800;55.600;38.134;2023-05-10T04:13:06;51.00;;;20.33;;
59016;SDS011;44800;55.600;38.134;2023-05-10T04:15:34;37.67;;;19.73;;
59016;SDS011;44800;55.600;38.134;2023-05-10T04:18:04;42.10;;;19.80;;
59016;SDS011;44800;55.600;38.134;2023-05-10T04:20:34;35.97;;;19.45;;
59016;SDS011;44800;55.600;38.134;2023-05-10T04:23:02;41.92;;;17.70;;
59016;SDS011;44800;55.600;38.134;2023-05-10T04:25:33;42.58;;;21.45;;
59016;SDS011;44800;55.600;38.134;2023-05-10T04:28:02;38.03;;;16.85;;
59016;SDS011;44800;55.600;38.134;2023-05-10T04:30:31;32.95;;;19.17;;
59016;SDS011;44800;55.600;38.134;2023-05-10T04:32:59;35.42;;;15.30;;
59016;SDS011;44800;55.600;38.134;2023-05-10T04:35:29;38.95;;;16.77;;
59016;SDS011;44800;55.600;38.134;2023-05-10T04:37:58;33.15;;;15.23;;
59016;SDS011;44800;55.600;38.134;2023-05-10T04:40:27;26.38;;;12.02;;
59016;SDS011;44800;55.600;38.134;2023-05-10T04:42:55;21.27;;;11.55;;
59016;SDS011;44800;55.600;38.134;2023-05-10T04:45:24;25.15;;;11.48;;
59016;SDS011;44800;55.600;38.134;2023-05-10T04:47:52;18.13;;;9.52;;
59016;SDS011;44800;55.600;38.134;2023-05-10T04:50:20;28.42;;;10.07;;
59016;SDS011;44800;55.600;38.134;2023-05-10T04:52:50;29.33;;;10.27;;
59016;SDS011;44800;55.600;38.134;2023-05-10T04:55:19;21.90;;;9.00;;
59016;SDS011;44800;55.600;38.134;2023-05-10T04:57:47;20.17;;;9.90;;
59016;SDS011;44800;55.600;38.134;2023-05-10T05:00:16;29.65;;;9.77;;
59016;SDS011;44800;55.600;38.134;2023-05-10T05:02:45;21.92;;;10.25;;
59016;SDS011;44800;55.600;38.134;2023-05-10T05:05:13;27.58;;;10.20;;
59016;SDS011;44800;55.600;38.134;2023-05-10T05:07:42;279.60;;;34.05;;
59016;SDS011;44800;55.600;38.134;2023-05-10T05:10:11;18.75;;;9.02;;
59016;SDS011;44800;55.600;38.134;2023-05-10T05:12:41;18.50;;;10.40;;
59016;SDS011;44800;55.600;38.134;2023-05-10T05:15:10;23.13;;;9.15;;
59016;SDS011;44800;55.600;38.134;2023-05-10T05:17:38;13.30;;;8.82;;
59016;SDS011;44800;55.600;38.134;2023-05-10T05:20:07;19.77;;;9.38;;
59016;SDS011;44800;55.600;38.134;2023-05-10T05:22:37;23.52;;;8.65;;
59016;SDS011;44800;55.600;38.134;2023-05-10T05:25:05;21.20;;;9.80;;
59016;SDS011;44800;55.600;38.134;2023-05-10T05:27:36;19.60;;;8.95;;
59016;SDS011;44800;55.600;38.134;2023-05-10T05:30:05;17.38;;;8.18;;
59016;SDS011;44800;55.600;38.134;2023-05-10T05:32:34;32.90;;;11.00;;
59016;SDS011;44800;55.600;38.134;2023-05-10T05:35:02;19.42;;;9.07;;
59016;SDS011;44800;55.600;38.134;2023-05-10T05:37:31;15.30;;;8.68;;
59016;SDS011;44800;55.600;38.134;2023-05-10T05:39:59;17.95;;;8.00;;
59016;SDS011;44800;55.600;38.134;2023-05-10T05:42:30;14.45;;;8.15;;
59016;SDS011;44800;55.600;38.134;2023-05-10T05:45:01;18.10;;;8.05;;
59016;SDS011;44800;55.600;38.134;2023-05-10T05:47:32;13.68;;;7.65;;
59016;SDS011;44800;55.600;38.134;2023-05-10T05:50:01;17.42;;;7.93;;
59016;SDS011;44800;55.600;38.134;2023-05-10T05:52:30;16.73;;;7.97;;
59016;SDS011;44800;55.600;38.134;2023-05-10T05:54:58;12.70;;;7.05;;
59016;SDS011;44800;55.600;38.134;2023-05-10T05:57:29;15.35;;;7.53;;
59016;SDS011;44800;55.600;38.134;2023-05-10T05:59:57;18.75;;;8.18;;
59016;SDS011;44800;55.600;38.134;2023-05-10T06:02:27;12.73;;;6.97;;
59016;SDS011;44800;55.600;38.134;2023-05-10T06:04:56;15.15;;;7.68;;
59016;SDS011;44800;55.600;38.134;2023-05-10T06:07:24;11.15;;;7.00;;
59016;SDS011;44800;55.600;38.134;2023-05-10T06:09:53;10.98;;;6.88;;
59016;SDS011;44800;55.600;38.134;2023-05-10T06:12:21;13.43;;;6.32;;
59016;SDS011;44800;55.600;38.134;2023-05-10T06:14:50;12.80;;;6.35;;
59016;SDS011;44800;55.600;38.134;2023-05-10T06:17:19;10.25;;;6.65;;
59016;SDS011;44800;55.600;38.134;2023-05-10T06:19:49;15.20;;;6.65;;
59016;SDS011;44800;55.600;38.134;2023-05-10T06:22:18;14.52;;;7.03;;
59016;SDS011;44800;55.600;38.134;2023-05-10T06:24:46;14.30;;;6.97;;
59016;SDS011;44800;55.600;38.134;2023-05-10T06:27:14;17.20;;;7.97;;
59016;SDS011;44800;55.600;38.134;2023-05-10T06:29:43;15.15;;;8.45;;
59016;SDS011;44800;55.600;38.134;2023-05-10T06:32:12;26.17;;;9.10;;
59016;SDS011;44800;55.600;38.134;2023-05-10T06:34:40;18.65;;;7.55;;
59016;SDS011;44800;55.600;38.134;2023-05-10T06:37:11;10.93;;;7.68;;
59016;SDS011;44800;55.600;38.134;2023-05-10T06:39:39;19.58;;;8.45;;
59016;SDS011;44800;55.600;38.134;2023-05-10T06:42:08;19.90;;;9.48;;
59016;SDS011;44800;55.600;38.134;2023-05-10T06:44:36;21.33;;;10.25;;
59016;SDS011;44800;55.600;38.134;2023-05-10T06:47:04;20.73;;;9.82;;
59016;SDS011;44800;55.600;38.134;2023-05-10T06:49:33;13.43;;;8.20;;
59016;SDS011;44800;55.600;38.134;2023-05-10T06:52:03;14.35;;;8.00;;
59016;SDS011;44800;55.600;38.134;2023-05-10T06:54:33;17.38;;;7.70;;
59016;SDS011;44800;55.600;38.134;2023-05-10T06:57:02;16.10;;;8.68;;
59016;SDS011;44800;55.600;38.134;2023-05-10T06:59:36;21.42;;;8.20;;
59016;SDS011;44800;55.600;38.134;2023-05-10T07:02:04;13.20;;;6.65;;
59016;SDS011;44800;55.600;38.134;2023-05-10T07:04:33;12.30;;;6.80;;
59016;SDS011;44800;55.600;38.134;2023-05-10T07:07:02;10.18;;;6.47;;
59016;SDS011;44800;55.600;38.134;2023-05-10T07:09:30;12.90;;;6.65;;
59016;SDS011;44800;55.600;38.134;2023-05-10T07:12:00;11.40;;;6.20;;
59016;SDS011;44800;55.600;38.134;2023-05-10T07:14:28;9.52;;;5.57;;
59016;SDS011;44800;55.600;38.134;2023-05-10T07:16:57;12.45;;;5.40;;
59016;SDS011;44800;55.600;38.134;2023-05-10T07:19:25;10.55;;;4.93;;
59016;SDS011;44800;55.600;38.134;2023-05-10T07:21:54;6.45;;;3.72;;
59016;SDS011;44800;55.600;38.134;2023-05-10T07:24:23;6.72;;;3.13;;
59016;SDS011;44800;55.600;38.134;2023-05-10T07:26:52;5.10;;;3.10;;
59016;SDS011;44800;55.600;38.134;2023-05-10T07:29:22;13.82;;;3.95;;
59016;SDS011;44800;55.600;38.134;2023-05-10T07:31:50;8.48;;;3.58;;
59016;SDS011;44800;55.600;38.134;2023-05-10T07:34:18;5.90;;;3.75;;
59016;SDS011;44800;55.600;38.134;2023-05-10T07:36:47;7.82;;;2.88;;
59016;SDS011;44800;55.600;38.134;2023-05-10T07:39:15;11.40;;;3.17;;
59016;SDS011;44800;55.600;38.134;2023-05-10T07:41:51;7.95;;;3.63;;
59016;SDS011;44800;55.600;38.134;2023-05-10T07:44:21;5.97;;;2.90;;
59016;SDS011;44800;55.600;38.134;2023-05-10T07:46:50;5.53;;;3.05;;
59016;SDS011;44800;55.600;38.134;2023-05-10T07:49:18;5.22;;;3.47;;
59016;SDS011;44800;55.600;38.134;2023-05-10T07:51:47;8.25;;;3.33;;
59016;SDS011;44800;55.600;38.134;2023-05-10T07:54:16;8.98;;;2.97;;
59016;SDS011;44800;55.600;38.134;2023-05-10T07:56:44;5.47;;;2.85;;
59016;SDS011;44800;55.600;38.134;2023-05-10T07:59:14;3.92;;;2.53;;
59016;SDS011;44800;55.600;38.134;2023-05-10T08:01:45;5.07;;;2.30;;
59016;SDS011;44800;55.600;38.134;2023-05-10T08:04:13;6.95;;;2.67;;
59016;SDS011;44800;55.600;38.134;2023-05-10T08:06:42;3.80;;;2.50;;
59016;SDS011;44800;55.600;38.134;2023-05-10T08:09:11;7.03;;;2.38;;
59016;SDS011;44800;55.600;38.134;2023-05-10T08:11:39;6.68;;;2.45;;
59016;SDS011;44800;55.600;38.134;2023-05-10T08:14:07;4.15;;;2.28;;
59016;SDS011;44800;55.600;38.134;2023-05-10T08:16:36;6.35;;;2.92;;
59016;SDS011;44800;55.600;38.134;2023-05-10T08:19:05;3.90;;;2.30;;
59016;SDS011;44800;55.600;38.134;2023-05-10T08:21:34;7.03;;;2.78;;
59016;SDS011;44800;55.600;38.134;2023-05-10T08:24:02;3.85;;;2.78;;
59016;SDS011;44800;55.600;38.134;2023-05-10T08:26:32;5.40;;;2.15;;
59016;SDS011;44800;55.600;38.134;2023-05-10T08:29:00;2.78;;;2.45;;
59016;SDS011;44800;55.600;38.134;2023-05-10T08:31:29;8.35;;;2.30;;
59016;SDS011;44800;55.600;38.134;2023-05-10T08:33:57;3.85;;;2.20;;
59016;SDS011;44800;55.600;38.134;2023-05-10T08:36:27;6.38;;;2.67;;
59016;SDS011;44800;55.600;38.134;2023-05-10T08:38:55;4.68;;;2.53;;
59016;SDS011;44800;55.600;38.134;2023-05-10T08:41:24;4.22;;;2.75;;
59016;SDS011;44800;55.600;38.134;2023-05-10T08:43:53;6.15;;;2.30;;
59016;SDS011;44800;55.600;38.134;2023-05-10T08:46:22;8.02;;;2.78;;
59016;SDS011;44800;55.600;38.134;2023-05-10T08:48:51;5.03;;;2.70;;
59016;SDS011;44800;55.600;38.134;2023-05-10T08:51:20;4.93;;;2.58;;
59016;SDS011;44800;55.600;38.134;2023-05-10T08:53:51;3.33;;;2.03;;
59016;SDS011;44800;55.600;38.134;2023-05-10T08:56:20;8.70;;;2.75;;
59016;SDS011;44800;55.600;38.134;2023-05-10T08:58:49;4.63;;;2.20;;
59016;SDS011;44800;55.600;38.134;2023-05-10T09:01:18;17.67;;;3.10;;
59016;SDS011;44800;55.600;38.134;2023-05-10T09:03:48;4.47;;;2.38;;
59016;SDS011;44800;55.600;38.134;2023-05-10T09:06:17;8.93;;;2.45;;
59016;SDS011;44800;55.600;38.134;2023-05-10T09:08:45;12.93;;;2.65;;
59016;SDS011;44800;55.600;38.134;2023-05-10T09:11:15;5.22;;;2.60;;
59016;SDS011;44800;55.600;38.134;2023-05-10T09:13:44;2.83;;;2.20;;
59016;SDS011;44800;55.600;38.134;2023-05-10T09:16:12;3.25;;;2.60;;
59016;SDS011;44800;55.600;38.134;2023-05-10T09:18:47;5.35;;;2.50;;
59016;SDS011;44800;55.600;38.134;2023-05-10T09:21:16;2.70;;;2.30;;
59016;SDS011;44800;55.600;38.134;2023-05-10T09:23:44;3.53;;;1.90;;
59016;SDS011;44800;55.600;38.134;2023-05-10T09:26:15;5.25;;;2.70;;
59016;SDS011;44800;55.600;38.134;2023-05-10T09:28:50;4.18;;;2.25;;
59016;SDS011;44800;55.600;38.134;2023-05-10T09:31:20;4.30;;;2.45;;
59016;SDS011;44800;55.600;38.134;2023-05-10T09:33:49;4.68;;;2.53;;
59016;SDS011;44800;55.600;38.134;2023-05-10T09:36:18;4.68;;;2.10;;
59016;SDS011;44800;55.600;38.134;2023-05-10T09:38:47;5.88;;;2.40;;
59016;SDS011;44800;55.600;38.134;2023-05-10T09:41:17;3.65;;;2.40;;
59016;SDS011;44800;55.600;38.134;2023-05-10T09:43:46;10.23;;;2.78;;
59016;SDS011;44800;55.600;38.134;2023-05-10T09:46:15;4.00;;;2.53;;
59016;SDS011;44800;55.600;38.134;2023-05-10T09:48:44;3.60;;;2.47;;
59016;SDS011;44800;55.600;38.134;2023-05-10T09:51:18;6.82;;;2.83;;
59016;SDS011;44800;55.600;38.134;2023-05-10T09:53:47;5.13;;;3.75;;
59016;SDS011;44800;55.600;38.134;2023-05-10T09:59:03;7.93;;;2.88;;
59016;SDS011;44800;55.600;38.134;2023-05-10T10:01:32;4.55;;;2.55;;
59016;SDS011;44800;55.600;38.134;2023-05-10T10:04:02;7.72;;;3.22;;
59016;SDS011;44800;55.600;38.134;2023-05-10T10:06:35;4.82;;;2.47;;
59016;SDS011;44800;55.600;38.134;2023-05-10T10:09:05;8.40;;;2.53;;
59016;SDS011;44800;55.600;38.134;2023-05-10T10:11:36;7.45;;;2.75;;
59016;SDS011;44800;55.600;38.134;2023-05-10T10:14:04;2.58;;;2.28;;
59016;SDS011;44800;55.600;38.134;2023-05-10T10:16:33;6.68;;;2.15;;
59016;SDS011;44800;55.600;38.134;2023-05-10T10:19:01;3.38;;;2.08;;
59016;SDS011;44800;55.600;38.134;2023-05-10T10:21:30;2.97;;;2.25;;
59016;SDS011;44800;55.600;38.134;2023-05-10T10:23:59;2.13;;;1.88;;
59016;SDS011;44800;55.600;38.134;2023-05-10T10:26:27;3.38;;;2.75;;
59016;SDS011;44800;55.600;38.134;2023-05-10T10:29:00;3.05;;;2.22;;
59016;SDS011;44800;55.600;38.134;2023-05-10T10:31:39;59.42;;;7.07;;
59016;SDS011;44800;55.600;38.134;2023-05-10T10:34:09;3.72;;;2.60;;
59016;SDS011;44800;55.600;38.134;2023-05-10T10:36:40;5.90;;;2.00;;
59016;SDS011;44800;55.600;38.134;2023-05-10T10:39:10;3.92;;;2.50;;
59016;SDS011;44800;55.600;38.134;2023-05-10T10:41:39;3.42;;;2.22;;
59016;SDS011;44800;55.600;38.134;2023-05-10T10:44:34;3.67;;;2.42;;
59016;SDS011;44800;55.600;38.134;2023-05-10T10:47:05;5.63;;;2.53;;
59016;SDS011;44800;55.600;38.134;2023-05-10T10:49:38;3.55;;;2.58;;
59016;SDS011;44800;55.600;38.134;2023-05-10T10:52:13;3.83;;;2.27;;
59016;SDS011;44800;55.600;38.134;2023-05-10T10:54:58;3.75;;;1.80;;
59016;SDS011;44800;55.600;38.134;2023-05-10T10:57:33;3.75;;;2.30;;
59016;SDS011;44800;55.600;38.134;2023-05-10T11:00:20;7.13;;;2.63;;
59016;SDS011;44800;55.600;38.134;2023-05-10T11:02:51;8.98;;;3.05;;
59016;SDS011;44800;55.600;38.134;2023-05-10T11:05:24;3.47;;;2.22;;
59016;SDS011;44800;55.600;38.134;2023-05-10T11:08:10;4.27;;;2.13;;
59016;SDS011;44800;55.600;38.134;2023-05-10T11:10:49;7.13;;;2.83;;
59016;SDS011;44800;55.600;38.134;2023-05-10T11:13:29;4.35;;;2.40;;
59016;SDS011;44800;55.600;38.134;2023-05-10T11:16:09;6.25;;;2.20;;
59016;SDS011;44800;55.600;38.134;2023-05-10T11:18:51;4.40;;;2.33;;
59016;SDS011;44800;55.600;38.134;2023-05-10T11:21:21;2.85;;;2.20;;
59016;SDS011;44800;55.600;38.134;2023-05-10T11:23:50;4.05;;;2.22;;
59016;SDS011;44800;55.600;38.134;2023-05-10T11:26:23;3.42;;;2.20;;
59016;SDS011;44800;55.600;38.134;2023-05-10T11:28:53;5.38;;;2.30;;
59016;SDS011;44800;55.600;38.134;2023-05-10T11:31:24;3.15;;;2.72;;
59016;SDS011;44800;55.600;38.134;2023-05-10T11:33:54;4.47;;;2.90;;
59016;SDS011;44800;55.600;38.134;2023-05-10T11:36:24;10.63;;;3.50;;
59016;SDS011;44800;55.600;38.134;2023-05-10T11:38:54;2.95;;;2.47;;
59016;SDS011;44800;55.600;38.134;2023-05-10T11:41:23;3.22;;;2.47;;
59016;SDS011;44800;55.600;38.134;2023-05-10T11:43:53;5.40;;;2.63;;
59016;SDS011;44800;55.600;38.134;2023-05-10T11:46:22;4.78;;;2.40;;
59016;SDS011;44800;55.600;38.134;2023-05-10T11:48:53;8.77;;;2.63;;
59016;SDS011;44800;55.600;38.134;2023-05-10T11:51:27;6.80;;;2.28;;
59016;SDS011;44800;55.600;38.134;2023-05-10T11:53:56;5.82;;;3.47;;
59016;SDS011;44800;55.600;38.134;2023-05-10T11:56:25;4.65;;;2.92;;
59016;SDS011;44800;55.600;38.134;2023-05-10T11:58:54;4.72;;;2.40;;
59016;SDS011;44800;55.600;38.134;2023-05-10T12:01:24;6.30;;;2.22;;
59016;SDS011;44800;55.600;38.134;2023-05-10T12:03:55;7.80;;;2.17;;
59016;SDS011;44800;55.600;38.134;2023-05-10T12:08:55;4.57;;;2.28;;
59016;SDS011;44800;55.600;38.134;2023-05-10T12:11:24;5.60;;;2.35;;
59016;SDS011;44800;55.600;38.134;2023-05-10T12:13:54;5.03;;;2.45;;
59016;SDS011;44800;55.600;38.134;2023-05-10T12:16:24;7.38;;;2.53;;
59016;SDS011;44800;55.600;38.134;2023-05-10T12:18:57;3.40;;;2.10;;
59016;SDS011;44800;55.600;38.134;2023-05-10T12:21:28;5.43;;;2.55;;
59016;SDS011;44800;55.600;38.134;2023-05-10T12:23:59;3.60;;;2.45;;
59016;SDS011;44800;55.600;38.134;2023-05-10T12:26:29;4.47;;;1.80;;
59016;SDS011;44800;55.600;38.134;2023-05-10T12:29:11;7.90;;;2.47;;
59016;SDS011;44800;55.600;38.134;2023-05-10T12:31:53;4.15;;;3.08;;
59016;SDS011;44800;55.600;38.134;2023-05-10T12:34:29;7.72;;;2.35;;
59016;SDS011;44800;55.600;38.134;2023-05-10T12:36:59;4.95;;;2.65;;
59016;SDS011;44800;55.600;38.134;2023-05-10T12:39:44;3.80;;;2.30;;
59016;SDS011;44800;55.600;38.134;2023-05-10T12:42:15;5.80;;;2.15;;
59016;SDS011;44800;55.600;38.134;2023-05-10T12:44:44;3.60;;;2.28;;
59016;SDS011;44800;55.600;38.134;2023-05-10T12:47:13;7.35;;;3.17;;
59016;SDS011;44800;55.600;38.134;2023-05-10T12:49:42;5.85;;;2.20;;
59016;SDS011;44800;55.600;38.134;2023-05-10T12:52:11;6.72;;;2.47;;
59016;SDS011;44800;55.600;38.134;2023-05-10T12:54:39;2.97;;;2.13;;
59016;SDS011;44800;55.600;38.134;2023-05-10T12:57:08;6.15;;;2.30;;
59016;SDS011;44800;55.600;38.134;2023-05-10T12:59:36;4.68;;;2.88;;
59016;SDS011;44800;55.600;38.134;2023-05-10T13:02:05;5.35;;;2.92;;
59016;SDS011;44800;55.600;38.134;2023-05-10T13:04:34;6.13;;;2.28;;
59016;SDS011;44800;55.600;38.134;2023-05-10T13:07:07;5.85;;;2.45;;
59016;SDS011;44800;55.600;38.134;2023-05-10T13:09:36;4.35;;;2.30;;
59016;SDS011;44800;55.600;38.134;2023-05-10T13:12:06;6.32;;;2.08;;
59016;SDS011;44800;55.600;38.134;2023-05-10T13:14:35;6.70;;;2.53;;
59016;SDS011;44800;55.600;38.134;2023-05-10T13:17:04;4.13;;;2.67;;
59016;SDS011;44800;55.600;38.134;2023-05-10T13:19:32;6.70;;;3.67;;
59016;SDS011;44800;55.600;38.134;2023-05-10T13:22:01;8.45;;;2.70;;
59016;SDS011;44800;55.600;38.134;2023-05-10T13:24:31;5.57;;;2.95;;
59016;SDS011;44800;55.600;38.134;2023-05-10T13:26:59;6.13;;;2.67;;
59016;SDS011;44800;55.600;38.134;2023-05-10T13:29:28;4.68;;;2.60;;
59016;SDS011;44800;55.600;38.134;2023-05-10T13:31:56;3.75;;;2.33;;
59016;SDS011;44800;55.600;38.134;2023-05-10T13:34:26;5.00;;;2.25;;
59016;SDS011;44800;55.600;38.134;2023-05-10T13:36:55;5.35;;;2.70;;
59016;SDS011;44800;55.600;38.134;2023-05-10T13:39:24;5.07;;;2.70;;
59016;SDS011;44800;55.600;38.134;2023-05-10T13:41:54;3.60;;;2.13;;
59016;SDS011;44800;55.600;38.134;2023-05-10T13:44:23;4.53;;;2.95;;
59016;SDS011;44800;55.600;38.134;2023-05-10T13:46:51;8.52;;;2.92;;
59016;SDS011;44800;55.600;38.134;2023-05-10T13:49:19;16.73;;;3.25;;
59016;SDS011;44800;55.600;38.134;2023-05-10T13:51:48;6.15;;;3.22;;
59016;SDS011;44800;55.600;38.134;2023-05-10T13:54:17;3.13;;;2.08;;
59016;SDS011;44800;55.600;38.134;2023-05-10T13:56:46;6.88;;;3.13;;
59016;SDS011;44800;55.600;38.134;2023-05-10T13:59:16;6.40;;;2.88;;
59016;SDS011;44800;55.600;38.134;2023-05-10T14:01:44;7.70;;;3.17;;
59016;SDS011;44800;55.600;38.134;2023-05-10T14:04:13;4.93;;;2.67;;
59016;SDS011;44800;55.600;38.134;2023-05-10T14:06:42;6.35;;;3.10;;
59016;SDS011;44800;55.600;38.134;2023-05-10T14:09:11;7.30;;;2.47;;
59016;SDS011;44800;55.600;38.134;2023-05-10T14:11:39;3.67;;;2.58;;
59016;SDS011;44800;55.600;38.134;2023-05-10T14:14:09;3.75;;;2.38;;
59016;SDS011;44800;55.600;38.134;2023-05-10T14:16:41;9.25;;;2.90;;
59016;SDS011;44800;55.600;38.134;2023-05-10T14:19:10;7.68;;;3.35;;
59016;SDS011;44800;55.600;38.134;2023-05-10T14:21:39;5.20;;;2.45;;
59016;SDS011;44800;55.600;38.134;2023-05-10T14:24:08;12.30;;;4.95;;
59016;SDS011;44800;55.600;38.134;2023-05-10T14:26:36;7.57;;;2.85;;
59016;SDS011;44800;55.600;38.134;2023-05-10T14:29:05;5.50;;;2.55;;
59016;SDS011;44800;55.600;38.134;2023-05-10T14:31:35;5.85;;;2.72;;
59016;SDS011;44800;55.600;38.134;2023-05-10T14:34:05;6.47;;;3.40;;
59016;SDS011;44800;55.600;38.134;2023-05-10T14:36:33;5.68;;;3.25;;
59016;SDS011;44800;55.600;38.134;2023-05-10T14:39:02;9.73;;;3.20;;
59016;SDS011;44800;55.600;38.134;2023-05-10T14:41:33;5.68;;;2.85;;
59016;SDS011;44800;55.600;38.134;2023-05-10T14:44:02;5.07;;;2.95;;
59016;SDS011;44800;55.600;38.134;2023-05-10T14:46:30;6.85;;;3.35;;